createdAt,value
2023-05-12T00:00:59.873Z,12.20
2023-05-12T00:03:26.709Z,12.20
2023-05-12T00:05:53.766Z,12.20
2023-05-12T00:08:20.410Z,12.20
2023-05-12T00:10:47.014Z,12.20
2023-05-12T00:13:13.625Z,12.10
2023-05-12T00:15:40.599Z,12.10
2023-05-12T00:18:07.218Z,12.10
2023-05-12T00:20:33.845Z,12.10
2023-05-12T00:23:00.471Z,12.10
2023-05-12T00:25:27.103Z,12.10
2023-05-12T00:27:53.742Z,12.10
2023-05-12T00:30:21.648Z,12.10
2023-05-12T00:32:49.122Z,12.10
2023-05-12T00:35:16.501Z,12.10
2023-05-12T00:37:43.166Z,12.10
2023-05-12T00:40:09.925Z,12.10
2023-05-12T00:42:36.624Z,12.00
2023-05-12T00:45:04.585Z,12.10
2023-05-12T00:47:31.243Z,12.10
2023-05-12T00:49:57.879Z,12.10
2023-05-12T00:52:24.536Z,12.10
2023-05-12T00:54:51.179Z,12.10
2023-05-12T00:57:17.828Z,12.10
2023-05-12T00:59:44.422Z,12.00
2023-05-12T01:02:11.146Z,12.10
2023-05-12T01:04:38.609Z,12.00
2023-05-12T01:07:09.837Z,12.10
2023-05-12T01:09:36.632Z,12.00
2023-05-12T01:12:03.402Z,12.00
2023-05-12T01:14:30.064Z,12.00
2023-05-12T01:16:59.252Z,11.90
2023-05-12T01:19:41.620Z,11.90
2023-05-12T01:22:09.127Z,11.90
2023-05-12T01:24:38.888Z,11.80
2023-05-12T01:27:05.617Z,11.90
2023-05-12T01:29:32.332Z,11.90
2023-05-12T01:31:58.935Z,11.90
2023-05-12T01:34:25.914Z,11.80
2023-05-12T01:36:52.597Z,11.80
2023-05-12T01:39:19.204Z,11.80
2023-05-12T01:41:45.848Z,11.80
2023-05-12T01:44:12.460Z,11.70
2023-05-12T01:46:39.066Z,11.70
2023-05-12T01:49:05.678Z,11.70
2023-05-12T01:51:32.283Z,11.70
2023-05-12T01:53:58.896Z,11.70
2023-05-12T01:56:26.483Z,11.70
2023-05-12T01:58:53.115Z,11.70
2023-05-12T02:01:19.765Z,11.60
2023-05-12T02:03:46.514Z,11.60
2023-05-12T02:06:13.333Z,11.50
2023-05-12T02:08:39.934Z,11.60
2023-05-12T02:11:09.683Z,11.60
2023-05-12T02:13:36.316Z,11.60
2023-05-12T02:16:02.989Z,11.50
2023-05-12T02:18:29.677Z,11.50
2023-05-12T02:20:56.303Z,11.50
2023-05-12T02:23:22.968Z,11.50
2023-05-12T02:25:49.598Z,11.50
2023-05-12T02:28:16.286Z,11.50
2023-05-12T02:30:48.530Z,11.50
2023-05-12T02:33:15.936Z,11.50
2023-05-12T02:35:43.068Z,11.50
2023-05-12T02:38:09.687Z,11.50
2023-05-12T02:40:36.316Z,11.50
2023-05-12T02:43:02.978Z,11.50
2023-05-12T02:45:29.620Z,11.50
2023-05-12T02:47:56.404Z,11.50
2023-05-12T02:50:23.180Z,11.50
2023-05-12T02:52:49.949Z,11.40
2023-05-12T02:55:16.687Z,11.50
2023-05-12T02:57:43.750Z,11.50
2023-05-12T03:00:10.823Z,11.50
2023-05-12T03:02:38.419Z,11.40
2023-05-12T03:05:05.607Z,11.50
2023-05-12T03:07:32.254Z,11.50
2023-05-12T03:09:58.952Z,11.40
2023-05-12T03:12:25.766Z,11.40
2023-05-12T03:14:52.385Z,11.40
2023-05-12T03:17:19.170Z,11.40
2023-05-12T03:19:45.865Z,11.40
2023-05-12T03:22:12.554Z,11.40
2023-05-12T03:24:39.165Z,11.40
2023-05-12T03:27:05.837Z,11.40
2023-05-12T03:29:32.443Z,11.40
2023-05-12T03:31:59.055Z,11.40
2023-05-12T03:34:25.664Z,11.40
2023-05-12T03:36:52.244Z,11.40
2023-05-12T03:39:18.862Z,11.40
2023-05-12T03:41:45.493Z,11.40
2023-05-12T03:44:12.288Z,11.40
2023-05-12T03:46:38.979Z,11.50
2023-05-12T03:49:05.680Z,11.50
2023-05-12T03:51:32.288Z,11.50
2023-05-12T03:53:59.063Z,11.60
2023-05-12T03:56:25.678Z,11.70
2023-05-12T03:58:52.345Z,11.90
2023-05-12T04:01:18.944Z,12.00
2023-05-12T04:03:46.181Z,12.00
2023-05-12T04:06:13.212Z,12.10
2023-05-12T04:08:42.018Z,12.20
2023-05-12T04:11:09.403Z,12.20
2023-05-12T04:13:36.050Z,12.20
2023-05-12T04:16:02.757Z,12.40
2023-05-12T04:18:29.424Z,12.40
2023-05-12T04:20:56.137Z,12.50
2023-05-12T04:23:22.897Z,12.60
2023-05-12T04:25:49.555Z,12.70
2023-05-12T04:28:16.199Z,12.70
2023-05-12T04:30:43.061Z,12.80
2023-05-12T04:33:10.011Z,12.90
2023-05-12T04:35:36.767Z,13.00
2023-05-12T04:38:03.525Z,13.00
2023-05-12T04:40:31.597Z,12.90
2023-05-12T04:43:00.080Z,13.00
2023-05-12T04:45:26.758Z,13.20
2023-05-12T04:47:53.435Z,13.40
2023-05-12T04:50:20.379Z,13.60
2023-05-12T04:52:46.988Z,14.00
2023-05-12T04:55:13.752Z,14.20
2023-05-12T04:57:41.382Z,14.90
2023-05-12T05:00:09.086Z,16.40
2023-05-12T05:02:36.046Z,17.60
2023-05-12T05:05:02.874Z,17.90
2023-05-12T05:07:29.497Z,17.50
2023-05-12T05:09:56.117Z,16.90
2023-05-12T05:12:22.742Z,16.40
2023-05-12T05:14:49.457Z,16.00
2023-05-12T05:17:16.215Z,15.80
2023-05-12T05:19:54.882Z,15.70
2023-05-12T05:22:24.780Z,15.60
2023-05-12T05:24:52.019Z,15.60
2023-05-12T05:27:18.926Z,15.50
2023-05-12T05:29:45.764Z,15.40
2023-05-12T05:32:12.447Z,15.40
2023-05-12T05:34:39.410Z,15.50
2023-05-12T05:37:06.132Z,15.60
2023-05-12T05:39:32.760Z,15.80
2023-05-12T05:41:59.376Z,16.00
2023-05-12T05:44:25.999Z,16.30
2023-05-12T05:46:52.668Z,16.60
2023-05-12T05:49:19.511Z,16.90
2023-05-12T05:51:46.127Z,17.20
2023-05-12T05:54:12.733Z,17.10
2023-05-12T05:56:39.498Z,16.90
2023-05-12T05:59:06.334Z,17.00
2023-05-12T06:01:33.142Z,17.10
2023-05-12T06:03:59.929Z,17.20
2023-05-12T06:06:26.660Z,17.20
2023-05-12T06:08:56.072Z,17.10
2023-05-12T06:11:22.849Z,16.70
2023-05-12T06:13:49.456Z,16.40
2023-05-12T06:16:16.086Z,16.00
2023-05-12T06:18:42.758Z,15.60
2023-05-12T06:21:09.598Z,15.50
2023-05-12T06:23:36.261Z,15.30
2023-05-12T06:26:03.318Z,15.20
2023-05-12T06:28:29.960Z,15.10
2023-05-12T06:30:56.566Z,15.10
2023-05-12T06:33:23.271Z,15.10
2023-05-12T06:35:49.878Z,15.30
2023-05-12T06:38:17.261Z,15.40
2023-05-12T06:40:44.188Z,15.40
2023-05-12T06:43:10.922Z,15.70
2023-05-12T06:45:37.544Z,16.00
2023-05-12T06:48:05.953Z,16.40
2023-05-12T06:50:33.740Z,16.90
2023-05-12T06:53:01.033Z,17.20
2023-05-12T06:55:28.109Z,17.20
2023-05-12T06:57:56.039Z,17.00
2023-05-12T07:00:23.845Z,16.90
2023-05-12T07:02:50.541Z,16.70
2023-05-12T07:05:18.683Z,16.60
2023-05-12T07:07:45.573Z,16.60
2023-05-12T07:10:12.249Z,16.70
2023-05-12T07:12:39.190Z,16.90
2023-05-12T07:15:06.590Z,16.90
2023-05-12T07:17:33.265Z,17.20
2023-05-12T07:19:59.942Z,17.30
2023-05-12T07:22:26.715Z,17.50
2023-05-12T07:24:53.858Z,17.90
2023-05-12T07:27:20.478Z,18.20
2023-05-12T07:29:47.081Z,18.40
2023-05-12T07:32:13.831Z,18.60
2023-05-12T07:34:40.434Z,18.60
2023-05-12T07:37:07.078Z,19.00
2023-05-12T07:39:33.863Z,19.30
2023-05-12T07:42:00.526Z,19.80
2023-05-12T07:44:27.960Z,20.40
2023-05-12T07:46:54.630Z,21.30
2023-05-12T07:49:23.194Z,22.60
2023-05-12T07:51:49.810Z,23.60
2023-05-12T07:54:16.435Z,23.80
2023-05-12T07:56:43.051Z,24.30
2023-05-12T07:59:10.759Z,25.30
2023-05-12T08:01:37.431Z,25.70
2023-05-12T08:04:04.234Z,25.70
2023-05-12T08:06:31.128Z,25.90
2023-05-12T08:08:58.358Z,25.40
2023-05-12T08:11:26.449Z,25.50
2023-05-12T08:13:53.265Z,25.50
2023-05-12T08:16:19.974Z,25.60
2023-05-12T08:18:46.604Z,24.50
2023-05-12T08:21:13.233Z,23.50
2023-05-12T08:23:39.843Z,23.20
2023-05-12T08:26:06.466Z,22.70
2023-05-12T08:28:33.113Z,22.40
2023-05-12T08:31:01.479Z,22.00
2023-05-12T08:33:29.357Z,22.30
2023-05-12T08:35:56.001Z,21.80
2023-05-12T08:38:22.629Z,21.80
2023-05-12T08:41:11.779Z,21.60
2023-05-12T08:43:43.979Z,21.60
2023-05-12T08:46:11.306Z,21.50
2023-05-12T08:48:39.121Z,21.10
2023-05-12T08:51:11.701Z,21.00
2023-05-12T08:53:38.856Z,20.90
2023-05-12T08:58:41.504Z,20.40
2023-05-12T09:01:08.654Z,20.20
2023-05-12T09:03:35.491Z,20.00
2023-05-12T09:06:02.502Z,19.80
2023-05-12T09:08:31.067Z,20.10
2023-05-12T09:10:58.098Z,20.50
2023-05-12T09:13:29.874Z,21.10
2023-05-12T09:15:56.763Z,21.10
2023-05-12T09:18:23.489Z,21.20
2023-05-12T09:20:50.208Z,21.30
2023-05-12T09:23:18.609Z,21.20
2023-05-12T09:25:46.823Z,21.20
2023-05-12T09:28:13.509Z,21.10
2023-05-12T09:30:42.270Z,21.20
2023-05-12T09:33:12.572Z,21.20
2023-05-12T09:35:43.066Z,21.10
2023-05-12T09:38:10.825Z,21.20
2023-05-12T09:40:37.495Z,21.20
2023-05-12T09:43:05.877Z,21.10
2023-05-12T09:45:36.666Z,21.30
2023-05-12T09:48:11.102Z,21.50
2023-05-12T09:50:47.805Z,21.60
2023-05-12T09:53:15.661Z,21.40
2023-05-12T09:55:45.950Z,21.40
2023-05-12T09:58:12.619Z,21.30
2023-05-12T10:00:52.461Z,21.00
2023-05-12T10:03:26.429Z,20.50
2023-05-12T10:06:01.583Z,20.40
2023-05-12T10:08:32.208Z,20.40
2023-05-12T10:10:59.261Z,20.30
2023-05-12T10:13:26.416Z,20.40
2023-05-12T10:15:55.806Z,20.50
2023-05-12T10:18:22.535Z,20.50
2023-05-12T10:20:49.245Z,20.50
2023-05-12T10:23:16.287Z,20.50
2023-05-12T10:25:46.140Z,20.40
2023-05-12T10:28:12.859Z,20.40
2023-05-12T10:30:39.908Z,20.10
2023-05-12T10:33:08.671Z,19.80
2023-05-12T10:35:36.431Z,19.50
2023-05-12T10:38:13.081Z,19.40
2023-05-12T10:41:01.267Z,19.30
2023-05-12T10:43:29.380Z,19.20
2023-05-12T10:46:14.772Z,19.20
2023-05-12T10:49:04.074Z,19.10
2023-05-12T10:51:32.964Z,19.20
2023-05-12T10:54:07.206Z,19.40
2023-05-12T10:56:40.044Z,19.60
2023-05-12T10:59:11.905Z,19.70
2023-05-12T11:01:43.011Z,19.80
2023-05-12T11:04:11.583Z,19.70
2023-05-12T11:06:39.390Z,19.80
2023-05-12T11:09:08.876Z,19.90
2023-05-12T11:11:36.294Z,20.10
2023-05-12T11:14:03.161Z,20.10
2023-05-12T11:16:29.877Z,20.20
2023-05-12T11:19:08.690Z,20.20
2023-05-12T11:21:35.695Z,20.10
2023-05-12T11:24:02.772Z,19.90
2023-05-12T11:26:29.802Z,19.90
2023-05-12T11:28:59.545Z,19.90
2023-05-12T11:31:26.271Z,19.90
2023-05-12T11:34:12.132Z,20.00
2023-05-12T11:36:43.230Z,20.20
2023-05-12T11:39:36.421Z,20.40
2023-05-12T11:42:12.014Z,20.50
2023-05-12T11:44:46.701Z,20.70
2023-05-12T11:47:13.888Z,20.60
2023-05-12T11:49:51.180Z,20.80
2023-05-12T11:52:19.554Z,20.70
2023-05-12T11:55:05.976Z,20.90
2023-05-12T11:57:34.181Z,21.00
2023-05-12T12:00:01.742Z,21.10
2023-05-12T12:02:28.622Z,21.20
2023-05-12T12:04:55.351Z,21.30
2023-05-12T12:07:31.959Z,21.00
2023-05-12T12:09:58.934Z,21.00
2023-05-12T12:12:25.621Z,21.00
2023-05-12T12:14:52.258Z,21.30
2023-05-12T12:17:18.873Z,21.70
2023-05-12T12:19:47.661Z,22.00
2023-05-12T12:22:14.385Z,22.20
2023-05-12T12:24:42.248Z,22.20
2023-05-12T12:27:08.889Z,22.10
2023-05-12T12:29:35.497Z,22.00
2023-05-12T12:32:02.164Z,21.80
2023-05-12T12:34:28.817Z,21.70
2023-05-12T12:36:56.417Z,21.70
2023-05-12T12:39:23.274Z,21.90
2023-05-12T12:41:50.269Z,21.80
2023-05-12T12:44:17.689Z,21.60
2023-05-12T12:46:44.364Z,21.20
2023-05-12T12:49:11.296Z,20.90
2023-05-12T12:51:45.572Z,20.80
2023-05-12T12:54:14.625Z,20.70
2023-05-12T12:56:41.739Z,20.70
2023-05-12T12:59:09.745Z,20.70
2023-05-12T13:01:36.546Z,20.80
2023-05-12T13:04:04.592Z,20.90
2023-05-12T13:06:33.828Z,21.00
2023-05-12T13:09:01.200Z,20.90
2023-05-12T13:11:28.148Z,21.00
2023-05-12T13:13:54.763Z,21.00
2023-05-12T13:16:22.105Z,20.90
2023-05-12T13:18:48.813Z,21.00
2023-05-12T13:21:15.463Z,21.00
2023-05-12T13:23:42.186Z,20.90
2023-05-12T13:26:09.053Z,20.70
2023-05-12T13:28:35.802Z,20.60
2023-05-12T13:31:02.523Z,20.40
2023-05-12T13:33:29.164Z,20.50
2023-05-12T13:35:55.772Z,20.40
2023-05-12T13:38:22.440Z,20.30
2023-05-12T13:40:49.080Z,20.20
2023-05-12T13:43:15.737Z,20.10
2023-05-12T13:45:42.997Z,20.10
2023-05-12T13:48:09.691Z,20.20
2023-05-12T13:50:36.316Z,20.20
2023-05-12T13:53:02.993Z,20.30
2023-05-12T13:55:29.860Z,20.30
2023-05-12T13:57:56.617Z,20.40
2023-05-12T14:00:24.840Z,20.40
2023-05-12T14:02:52.328Z,20.70
2023-05-12T14:05:20.141Z,21.20
2023-05-12T14:07:47.152Z,21.80
2023-05-12T14:10:13.947Z,22.00
2023-05-12T14:12:42.742Z,22.00
2023-05-12T14:15:23.979Z,22.20
2023-05-12T14:17:56.035Z,22.00
2023-05-12T14:20:22.691Z,21.70
2023-05-12T14:22:49.337Z,21.30
2023-05-12T14:25:16.323Z,21.00
2023-05-12T14:27:43.094Z,20.80
2023-05-12T14:30:11.088Z,20.70
2023-05-12T14:32:37.925Z,20.60
2023-05-12T14:35:06.081Z,20.90
2023-05-12T14:37:34.700Z,21.10
2023-05-12T14:40:01.378Z,21.10
2023-05-12T14:42:29.405Z,21.00
2023-05-12T14:44:56.459Z,20.90
2023-05-12T14:47:23.365Z,20.90
2023-05-12T14:49:50.174Z,21.10
2023-05-12T14:52:16.879Z,21.10
2023-05-12T14:54:44.249Z,21.30
2023-05-12T14:57:10.911Z,21.30
2023-05-12T14:59:38.616Z,21.30
2023-05-12T15:02:05.577Z,21.20
2023-05-12T15:04:32.283Z,21.10
2023-05-12T15:06:59.005Z,20.90
2023-05-12T15:09:25.767Z,20.80
2023-05-12T15:11:52.721Z,20.60
2023-05-12T15:14:19.445Z,20.50
2023-05-12T15:16:46.226Z,20.50
2023-05-12T15:19:14.272Z,20.40
2023-05-12T15:21:41.047Z,20.40
2023-05-12T15:24:08.222Z,20.50
2023-05-12T15:26:40.070Z,20.60
2023-05-12T15:29:07.360Z,20.70
2023-05-12T15:31:34.355Z,20.70
2023-05-12T15:34:01.022Z,20.70
2023-05-12T15:36:27.649Z,20.60
2023-05-12T15:38:54.310Z,20.40
2023-05-12T15:41:21.508Z,20.40
2023-05-12T15:43:48.143Z,20.40
2023-05-12T15:46:14.887Z,20.50
2023-05-12T15:48:41.636Z,20.50
2023-05-12T15:51:08.252Z,20.70
2023-05-12T15:53:34.888Z,21.00
2023-05-12T15:56:02.099Z,21.20
2023-05-12T15:58:29.223Z,21.30
2023-05-12T16:00:55.931Z,21.30
2023-05-12T16:03:23.617Z,21.40
2023-05-12T16:05:50.419Z,21.30
2023-05-12T16:08:17.054Z,21.50
2023-05-12T16:10:43.652Z,21.40
2023-05-12T16:13:10.284Z,21.30
2023-05-12T16:15:37.037Z,21.30
2023-05-12T16:18:03.914Z,21.30
2023-05-12T16:20:30.809Z,21.10
2023-05-12T16:22:57.427Z,21.10
2023-05-12T16:25:24.369Z,20.90
2023-05-12T16:27:51.093Z,20.70
2023-05-12T16:30:19.927Z,20.60
2023-05-12T16:32:47.423Z,20.50
2023-05-12T16:35:14.220Z,20.40
2023-05-12T16:37:41.193Z,20.20
2023-05-12T16:40:09.430Z,20.20
2023-05-12T16:42:36.494Z,20.30
2023-05-12T16:45:03.400Z,20.20
2023-05-12T16:47:30.161Z,20.20
2023-05-12T16:49:58.213Z,20.20
2023-05-12T16:52:25.535Z,20.20
2023-05-12T16:54:53.108Z,20.10
2023-05-12T16:57:20.186Z,20.00
2023-05-12T16:59:48.424Z,20.00
2023-05-12T17:02:15.361Z,20.00
2023-05-12T17:04:42.125Z,20.10
2023-05-12T17:07:09.509Z,20.10
2023-05-12T17:09:36.214Z,20.10
2023-05-12T17:12:04.790Z,20.10
2023-05-12T17:14:31.483Z,20.10
2023-05-12T17:16:58.207Z,20.00
2023-05-12T17:19:24.904Z,20.00
2023-05-12T17:21:51.995Z,19.90
2023-05-12T17:24:18.696Z,19.90
2023-05-12T17:26:45.514Z,20.00
2023-05-12T17:29:12.176Z,20.00
2023-05-12T17:31:38.944Z,20.00
2023-05-12T17:34:05.647Z,20.00
2023-05-12T17:36:33.512Z,19.90
2023-05-12T17:39:00.170Z,19.80
2023-05-12T17:41:28.910Z,19.70
2023-05-12T17:43:55.756Z,19.60
2023-05-12T17:46:22.990Z,19.60
2023-05-12T17:48:49.781Z,19.50
2023-05-12T17:51:16.866Z,19.40
2023-05-12T17:53:43.552Z,19.40
2023-05-12T17:56:10.321Z,19.30
2023-05-12T17:58:36.965Z,19.20
2023-05-12T18:01:03.749Z,19.10
2023-05-12T18:03:30.476Z,19.00
2023-05-12T18:05:57.295Z,19.00
2023-05-12T18:08:23.974Z,19.00
2023-05-12T18:10:51.138Z,18.90
2023-05-12T18:13:17.892Z,18.90
2023-05-12T18:15:44.529Z,18.80
2023-05-12T18:18:11.314Z,18.80
2023-05-12T18:20:38.419Z,18.70
2023-05-12T18:23:05.271Z,18.70
2023-05-12T18:25:32.034Z,18.60
2023-05-12T18:27:58.678Z,18.60
2023-05-12T18:30:25.279Z,18.40
2023-05-12T18:32:52.309Z,18.40
2023-05-12T18:35:19.708Z,18.30
2023-05-12T18:37:46.552Z,18.20
2023-05-12T18:40:13.182Z,18.10
2023-05-12T18:42:39.810Z,18.00
2023-05-12T18:45:07.022Z,17.90
2023-05-12T18:47:34.335Z,17.80
2023-05-12T18:50:01.444Z,17.80
2023-05-12T18:52:28.059Z,17.70
2023-05-12T18:54:54.951Z,17.60
2023-05-12T18:57:21.660Z,17.50
2023-05-12T18:59:48.274Z,17.50
2023-05-12T19:02:14.916Z,17.50
2023-05-12T19:04:41.554Z,17.40
2023-05-12T19:07:09.816Z,17.40
2023-05-12T19:09:36.942Z,17.30
2023-05-12T19:12:05.839Z,17.20
2023-05-12T19:14:32.637Z,17.20
2023-05-12T19:16:59.236Z,17.10
2023-05-12T19:19:25.857Z,17.10
2023-05-12T19:21:52.514Z,17.10
2023-05-12T19:24:19.362Z,17.10
2023-05-12T19:26:45.981Z,17.10
2023-05-12T19:29:12.597Z,17.00
2023-05-12T19:31:39.244Z,16.90
2023-05-12T19:34:06.177Z,16.90
2023-05-12T19:36:32.793Z,16.70
2023-05-12T19:39:00.392Z,16.70
2023-05-12T19:41:27.944Z,16.60
2023-05-12T19:43:55.092Z,16.60
2023-05-12T19:46:21.938Z,16.60
2023-05-12T19:48:48.679Z,16.50
2023-05-12T19:51:15.305Z,16.40
2023-05-12T19:53:43.585Z,16.40
2023-05-12T19:56:10.229Z,16.30
2023-05-12T19:58:36.862Z,16.30
2023-05-12T20:01:03.577Z,16.30
2023-05-12T20:03:30.929Z,16.20
2023-05-12T20:05:58.562Z,16.20
2023-05-12T20:08:25.277Z,16.20
2023-05-12T20:10:52.056Z,16.10
2023-05-12T20:13:18.689Z,16.00
2023-05-12T20:15:45.359Z,16.00
2023-05-12T20:18:14.027Z,16.00
2023-05-12T20:20:42.150Z,16.00
2023-05-12T20:23:08.909Z,15.90
2023-05-12T20:25:36.140Z,15.90
2023-05-12T20:28:02.982Z,15.90
2023-05-12T20:30:29.629Z,15.80
2023-05-12T20:32:56.406Z,15.80
2023-05-12T20:35:23.435Z,15.70
2023-05-12T20:37:50.564Z,15.60
2023-05-12T20:40:17.234Z,15.60
2023-05-12T20:42:45.753Z,15.60
2023-05-12T20:45:12.827Z,15.50
2023-05-12T20:47:39.513Z,15.50
2023-05-12T20:50:09.460Z,15.40
2023-05-12T20:52:40.193Z,15.40
2023-05-12T20:55:07.454Z,15.40
2023-05-12T20:57:34.194Z,15.20
2023-05-12T21:00:00.809Z,15.20
2023-05-12T21:02:27.968Z,15.10
2023-05-12T21:04:55.080Z,15.10
2023-05-12T21:07:21.830Z,15.00
2023-05-12T21:09:48.433Z,15.00
2023-05-12T21:12:15.046Z,14.90
2023-05-12T21:14:42.552Z,14.90
2023-05-12T21:17:09.750Z,14.80
2023-05-12T21:19:36.746Z,14.80
2023-05-12T21:22:04.250Z,14.70
2023-05-12T21:24:30.843Z,14.70
2023-05-12T21:26:57.539Z,14.70
2023-05-12T21:29:24.127Z,14.60
2023-05-12T21:31:50.813Z,14.60
2023-05-12T21:34:17.407Z,14.40
2023-05-12T21:36:44.248Z,14.30
2023-05-12T21:39:10.867Z,14.20
2023-05-12T21:41:38.464Z,14.20
2023-05-12T21:44:06.167Z,14.10
2023-05-12T21:46:33.367Z,14.00
2023-05-12T21:49:00.149Z,13.80
2023-05-12T21:51:26.840Z,13.80
2023-05-12T21:53:56.588Z,13.70
2023-05-12T21:56:23.651Z,13.70
2023-05-12T21:58:50.588Z,13.60
2023-05-12T22:01:17.985Z,13.60
2023-05-12T22:03:45.104Z,13.60
2023-05-12T22:06:12.016Z,13.50
2023-05-12T22:08:38.674Z,13.50
2023-05-12T22:11:05.266Z,13.50
2023-05-12T22:13:31.871Z,13.50
2023-05-12T22:15:59.079Z,13.40
2023-05-12T22:18:25.745Z,13.50
2023-05-12T22:20:52.470Z,13.40
2023-05-12T22:23:19.336Z,13.50
2023-05-12T22:25:45.957Z,13.50
2023-05-12T22:28:12.588Z,13.50
2023-05-12T22:30:39.192Z,13.40
2023-05-12T22:33:05.913Z,13.30
2023-05-12T22:35:32.709Z,13.20
2023-05-12T22:37:59.321Z,13.10
2023-05-12T22:40:27.076Z,13.00
2023-05-12T22:42:53.886Z,13.00
2023-05-12T22:45:20.634Z,13.00
2023-05-12T22:47:47.271Z,13.10
2023-05-12T22:50:13.938Z,13.10
2023-05-12T22:52:40.547Z,12.90
2023-05-12T22:55:07.369Z,12.80
2023-05-12T22:57:33.985Z,12.60
2023-05-12T23:00:00.703Z,12.50
2023-05-12T23:02:27.373Z,12.40
2023-05-12T23:04:54.033Z,12.30
2023-05-12T23:07:20.734Z,12.20
2023-05-12T23:09:47.346Z,12.10
2023-05-12T23:12:13.952Z,12.10
2023-05-12T23:14:40.692Z,12.10
2023-05-12T23:17:07.365Z,12.10
2023-05-12T23:19:34.033Z,12.10
2023-05-12T23:22:00.629Z,12.10
2023-05-12T23:24:27.250Z,12.20
2023-05-12T23:26:53.894Z,12.30
2023-05-12T23:29:20.516Z,12.40
2023-05-12T23:31:47.164Z,12.40
2023-05-12T23:34:13.802Z,12.30
2023-05-12T23:36:40.414Z,12.20
2023-05-12T23:39:07.102Z,12.30
2023-05-12T23:41:36.190Z,12.30
2023-05-12T23:44:03.209Z,12.40
2023-05-12T23:46:29.854Z,12.50
2023-05-12T23:48:56.572Z,12.60
2023-05-12T23:51:23.749Z,12.60
2023-05-12T23:53:50.525Z,12.70
2023-05-12T23:56:17.136Z,12.70
2023-05-12T23:58:43.882Z,12.70
